createdAt,value
2023-05-17T00:00:39.753Z,81.28
2023-05-17T00:03:20.731Z,81.53
2023-05-17T00:05:52.266Z,81.51
2023-05-17T00:08:22.340Z,81.39
2023-05-17T00:10:54.170Z,81.29
2023-05-17T00:13:25.732Z,81.80
2023-05-17T00:15:55.784Z,82.02
2023-05-17T00:18:27.514Z,81.67
2023-05-17T00:20:59.210Z,82.22
2023-05-17T00:23:30.767Z,82.41
2023-05-17T00:26:00.828Z,82.56
2023-05-17T00:28:32.435Z,82.51
2023-05-17T00:31:02.524Z,82.76
2023-05-17T00:33:34.562Z,82.40
2023-05-17T00:36:07.151Z,82.98
2023-05-17T00:38:39.611Z,83.12
2023-05-17T00:41:10.304Z,82.86
2023-05-17T00:43:41.902Z,82.40
2023-05-17T00:46:16.192Z,82.89
2023-05-17T00:48:47.926Z,83.03
2023-05-17T00:51:22.075Z,83.22
2023-05-17T00:53:53.902Z,82.97
2023-05-17T00:56:27.238Z,82.93
2023-05-17T00:58:59.560Z,82.89
2023-05-17T01:01:31.121Z,82.94
2023-05-17T01:04:01.363Z,82.77
2023-05-17T01:06:33.146Z,82.29
2023-05-17T01:09:05.345Z,82.61
2023-05-17T01:11:49.688Z,82.62
2023-05-17T01:14:34.163Z,82.59
2023-05-17T01:17:14.306Z,82.43
2023-05-17T01:20:06.298Z,82.52
2023-05-17T01:22:51.717Z,82.49
2023-05-17T01:25:42.895Z,82.60
2023-05-17T01:28:16.157Z,82.48
2023-05-17T01:30:51.097Z,82.55
2023-05-17T01:33:22.968Z,82.44
2023-05-17T01:35:54.609Z,82.43
2023-05-17T01:38:26.307Z,82.41
2023-05-17T01:41:06.161Z,82.46
2023-05-17T01:43:47.370Z,82.60
2023-05-17T01:46:27.954Z,82.55
2023-05-17T01:49:07.518Z,82.56
2023-05-17T01:51:47.265Z,82.59
2023-05-17T01:54:24.081Z,82.54
2023-05-17T01:56:59.284Z,82.72
2023-05-17T01:59:32.884Z,82.69
2023-05-17T02:02:09.093Z,82.71
2023-05-17T02:04:41.367Z,82.58
2023-05-17T02:07:12.971Z,82.50
2023-05-17T02:09:44.751Z,82.52
2023-05-17T02:12:16.425Z,82.58
2023-05-17T02:14:48.055Z,82.39
2023-05-17T02:17:19.626Z,82.48
2023-05-17T02:19:51.358Z,82.59
2023-05-17T02:22:22.899Z,82.54
2023-05-17T02:24:53.002Z,82.46
2023-05-17T02:27:24.620Z,82.36
2023-05-17T02:29:58.021Z,82.62
2023-05-17T02:32:29.728Z,82.75
2023-05-17T02:35:01.777Z,82.88
2023-05-17T02:37:33.314Z,82.74
2023-05-17T02:40:04.264Z,82.71
2023-05-17T02:42:38.629Z,82.35
2023-05-17T02:45:11.665Z,82.95
2023-05-17T02:47:43.691Z,82.82
2023-05-17T02:50:15.573Z,83.01
2023-05-17T02:52:47.174Z,82.99
2023-05-17T02:55:18.996Z,83.13
2023-05-17T02:57:50.538Z,83.15
2023-05-17T03:00:26.902Z,83.09
2023-05-17T03:02:58.593Z,83.38
2023-05-17T03:05:30.403Z,83.52
2023-05-17T03:08:02.060Z,83.25
2023-05-17T03:10:33.665Z,83.30
2023-05-17T03:13:05.239Z,83.39
2023-05-17T03:15:40.686Z,83.27
2023-05-17T03:18:12.354Z,83.62
2023-05-17T03:20:44.681Z,83.46
2023-05-17T03:23:16.223Z,83.43
2023-05-17T03:25:56.547Z,83.44
2023-05-17T03:28:28.274Z,83.51
2023-05-17T03:31:01.974Z,83.47
2023-05-17T03:33:36.683Z,83.55
2023-05-17T03:36:09.974Z,83.64
2023-05-17T03:38:41.610Z,83.65
2023-05-17T03:41:13.973Z,83.69
2023-05-17T03:43:45.741Z,83.57
2023-05-17T03:46:19.240Z,83.63
2023-05-17T03:48:52.058Z,83.75
2023-05-17T03:51:23.728Z,83.69
2023-05-17T03:54:01.037Z,83.66
2023-05-17T03:56:34.021Z,83.71
2023-05-17T03:59:05.715Z,83.90
2023-05-17T04:01:37.352Z,84.01
2023-05-17T04:04:09.110Z,84.08
2023-05-17T04:06:41.208Z,84.15
2023-05-17T04:09:13.959Z,84.08
2023-05-17T04:11:45.629Z,84.05
2023-05-17T04:14:15.910Z,84.03
2023-05-17T04:16:48.013Z,84.00
2023-05-17T04:19:19.800Z,84.16
2023-05-17T04:21:52.143Z,84.18
2023-05-17T04:24:24.672Z,84.12
2023-05-17T04:26:56.955Z,84.25
2023-05-17T04:29:29.554Z,84.29
2023-05-17T04:32:01.595Z,84.21
2023-05-17T04:34:33.849Z,84.26
2023-05-17T04:37:06.219Z,84.39
2023-05-17T04:39:38.296Z,84.50
2023-05-17T04:42:10.578Z,84.41
2023-05-17T04:44:45.229Z,84.34
2023-05-17T04:47:16.851Z,84.36
2023-05-17T04:49:48.815Z,84.38
2023-05-17T04:52:20.360Z,84.38
2023-05-17T04:54:53.018Z,84.45
2023-05-17T04:57:25.305Z,84.58
2023-05-17T05:00:02.537Z,84.54
2023-05-17T05:02:35.096Z,84.62
2023-05-17T05:05:10.684Z,84.58
2023-05-17T05:07:42.744Z,84.59
2023-05-17T05:10:15.034Z,84.50
2023-05-17T05:12:47.444Z,84.58
2023-05-17T05:15:21.136Z,84.46
2023-05-17T05:17:57.975Z,84.33
2023-05-17T05:20:29.814Z,84.31
2023-05-17T05:23:06.653Z,84.28
2023-05-17T05:25:40.266Z,84.32
2023-05-17T05:28:12.220Z,84.38
2023-05-17T05:30:45.066Z,84.32
2023-05-17T05:33:18.208Z,84.29
2023-05-17T05:35:50.744Z,84.16
2023-05-17T05:38:22.761Z,83.92
2023-05-17T05:40:54.505Z,83.75
2023-05-17T05:43:26.198Z,83.71
2023-05-17T05:45:58.657Z,83.81
2023-05-17T05:48:30.889Z,83.88
2023-05-17T05:51:03.239Z,84.14
2023-05-17T05:53:35.008Z,84.15
2023-05-17T05:56:07.588Z,84.15
2023-05-17T05:58:39.482Z,84.01
2023-05-17T06:01:11.691Z,83.95
2023-05-17T06:03:43.984Z,83.86
2023-05-17T06:06:16.676Z,83.80
2023-05-17T06:08:48.538Z,83.75
2023-05-17T06:11:21.426Z,83.70
2023-05-17T06:13:53.003Z,83.71
2023-05-17T06:16:24.640Z,83.74
2023-05-17T06:18:56.326Z,83.74
2023-05-17T06:21:28.006Z,83.78
2023-05-17T06:23:58.538Z,83.61
2023-05-17T06:26:30.440Z,83.50
2023-05-17T06:29:02.119Z,83.71
2023-05-17T06:31:34.655Z,83.71
2023-05-17T06:34:06.298Z,83.75
2023-05-17T06:36:38.767Z,83.74
2023-05-17T06:39:11.133Z,83.70
2023-05-17T06:41:42.933Z,83.55
2023-05-17T06:44:14.785Z,83.58
2023-05-17T06:46:46.325Z,83.55
2023-05-17T06:49:18.027Z,83.56
2023-05-17T06:51:49.780Z,83.47
2023-05-17T06:54:21.337Z,83.43
2023-05-17T06:56:51.585Z,83.46
2023-05-17T06:59:23.142Z,83.47
2023-05-17T07:01:53.279Z,83.56
2023-05-17T07:04:25.153Z,83.43
2023-05-17T07:06:56.738Z,83.45
2023-05-17T07:09:26.827Z,83.52
2023-05-17T07:11:58.392Z,83.42
2023-05-17T07:14:28.531Z,83.52
2023-05-17T07:17:00.161Z,83.37
2023-05-17T07:19:32.871Z,83.41
2023-05-17T07:22:04.573Z,83.37
2023-05-17T07:24:36.277Z,83.28
2023-05-17T07:27:08.397Z,83.20
2023-05-17T07:29:42.338Z,83.12
2023-05-17T07:32:14.039Z,82.91
2023-05-17T07:34:45.774Z,82.67
2023-05-17T07:37:17.433Z,82.49
2023-05-17T07:39:49.022Z,82.30
2023-05-17T07:42:19.114Z,82.33
2023-05-17T07:44:50.994Z,82.47
2023-05-17T07:47:22.626Z,82.39
2023-05-17T07:49:54.231Z,82.19
2023-05-17T07:52:25.856Z,82.16
2023-05-17T07:54:57.414Z,82.04
2023-05-17T07:57:29.522Z,82.00
2023-05-17T08:00:01.210Z,82.08
2023-05-17T08:02:44.057Z,82.02
2023-05-17T08:05:16.427Z,82.01
2023-05-17T08:07:47.989Z,82.04
2023-05-17T08:10:18.142Z,82.19
2023-05-17T08:12:50.134Z,82.19
2023-05-17T08:15:22.337Z,82.24
2023-05-17T08:17:53.972Z,82.30
2023-05-17T08:20:25.610Z,82.40
2023-05-17T08:22:56.149Z,82.46
2023-05-17T08:25:27.982Z,82.41
2023-05-17T08:27:59.643Z,82.51
2023-05-17T08:30:32.434Z,82.42
2023-05-17T08:33:04.302Z,82.26
2023-05-17T08:35:36.180Z,82.28
2023-05-17T08:38:08.432Z,82.25
2023-05-17T08:40:39.990Z,82.44
2023-05-17T08:43:12.602Z,82.50
2023-05-17T08:45:44.334Z,82.43
2023-05-17T08:48:17.569Z,82.52
2023-05-17T08:50:51.576Z,82.58
2023-05-17T08:53:23.806Z,82.73
2023-05-17T08:56:00.393Z,82.45
2023-05-17T08:58:52.418Z,82.50
2023-05-17T09:01:32.162Z,82.45
2023-05-17T09:04:05.866Z,82.48
2023-05-17T09:06:38.168Z,82.47
2023-05-17T09:09:10.065Z,82.43
2023-05-17T09:11:41.724Z,82.58
2023-05-17T09:14:13.477Z,82.73
2023-05-17T09:16:45.570Z,82.79
2023-05-17T09:19:19.402Z,82.62
2023-05-17T09:21:51.230Z,82.71
2023-05-17T09:24:30.318Z,82.56
2023-05-17T09:27:05.886Z,82.38
2023-05-17T09:29:40.273Z,82.31
2023-05-17T09:32:20.576Z,82.27
2023-05-17T09:34:52.578Z,82.20
2023-05-17T09:37:26.172Z,82.27
2023-05-17T09:39:57.788Z,82.34
2023-05-17T09:42:36.748Z,82.17
2023-05-17T09:45:10.956Z,82.09
2023-05-17T09:47:43.008Z,81.92
2023-05-17T09:50:20.396Z,81.97
2023-05-17T09:52:51.985Z,81.99
2023-05-17T09:55:27.606Z,81.92
2023-05-17T09:58:05.031Z,81.83
2023-05-17T10:00:36.811Z,81.85
2023-05-17T10:03:10.375Z,81.82
2023-05-17T10:05:45.264Z,81.89
2023-05-17T10:08:18.757Z,81.81
2023-05-17T10:10:51.668Z,81.85
2023-05-17T10:13:28.420Z,82.02
2023-05-17T10:16:01.587Z,81.93
2023-05-17T10:18:34.643Z,82.18
2023-05-17T10:21:07.848Z,82.22
2023-05-17T10:23:40.075Z,82.07
2023-05-17T10:26:12.387Z,81.89
2023-05-17T10:28:46.227Z,81.81
2023-05-17T10:31:18.716Z,81.77
2023-05-17T10:33:53.332Z,81.69
2023-05-17T10:36:27.130Z,81.58
2023-05-17T10:38:59.501Z,81.66
2023-05-17T10:41:35.266Z,81.65
2023-05-17T10:44:09.300Z,81.69
2023-05-17T10:46:41.347Z,81.49
2023-05-17T10:49:13.569Z,81.43
2023-05-17T10:51:46.797Z,81.03
2023-05-17T10:54:19.281Z,81.00
2023-05-17T10:56:53.315Z,81.04
2023-05-17T10:59:29.480Z,80.72
2023-05-17T11:02:06.219Z,80.96
2023-05-17T11:04:42.036Z,81.03
2023-05-17T11:07:32.620Z,81.08
2023-05-17T11:10:11.447Z,81.11
2023-05-17T11:12:44.625Z,81.01
2023-05-17T11:15:17.883Z,81.10
2023-05-17T11:17:54.859Z,81.26
2023-05-17T11:20:37.334Z,81.33
2023-05-17T11:23:17.192Z,81.36
2023-05-17T11:25:51.473Z,81.21
2023-05-17T11:28:24.172Z,81.17
2023-05-17T11:31:03.481Z,81.14
2023-05-17T11:33:43.605Z,80.95
2023-05-17T11:36:22.464Z,80.81
2023-05-17T11:39:13.017Z,80.76
2023-05-17T11:41:51.946Z,80.71
2023-05-17T11:44:30.159Z,80.54
2023-05-17T11:47:06.489Z,80.47
2023-05-17T11:49:40.370Z,80.36
2023-05-17T11:52:12.113Z,80.41
2023-05-17T11:54:44.367Z,80.67
2023-05-17T11:57:18.126Z,80.86
2023-05-17T11:59:49.863Z,80.94
2023-05-17T12:02:30.565Z,81.05
2023-05-17T12:05:02.891Z,81.13
2023-05-17T12:07:37.532Z,81.19
2023-05-17T12:10:15.185Z,80.98
2023-05-17T12:12:46.789Z,80.91
2023-05-17T12:15:22.166Z,80.83
2023-05-17T12:17:56.190Z,81.07
2023-05-17T12:20:30.341Z,81.10
2023-05-17T12:23:02.454Z,81.22
2023-05-17T12:25:34.185Z,81.22
2023-05-17T12:28:22.084Z,81.13
2023-05-17T12:30:58.015Z,81.01
2023-05-17T12:33:30.712Z,81.15
2023-05-17T12:36:04.873Z,81.27
2023-05-17T12:38:37.337Z,81.38
2023-05-17T12:41:11.662Z,81.46
2023-05-17T12:43:45.423Z,81.37
2023-05-17T12:46:20.330Z,81.22
2023-05-17T12:48:53.234Z,81.19
2023-05-17T12:51:25.626Z,81.13
2023-05-17T12:53:59.693Z,81.03
2023-05-17T12:56:32.468Z,81.21
2023-05-17T12:59:08.320Z,81.40
2023-05-17T13:01:43.334Z,81.57
2023-05-17T13:04:16.299Z,81.59
2023-05-17T13:06:50.000Z,81.61
2023-05-17T13:09:23.935Z,81.81
2023-05-17T13:11:56.945Z,82.09
2023-05-17T13:14:39.106Z,82.07
2023-05-17T13:17:12.113Z,82.14
2023-05-17T13:19:43.892Z,82.15
2023-05-17T13:22:16.430Z,81.90
2023-05-17T13:24:48.472Z,81.79
2023-05-17T13:27:20.324Z,81.75
2023-05-17T13:29:50.515Z,81.68
2023-05-17T13:32:23.915Z,81.64
2023-05-17T13:34:56.821Z,81.66
2023-05-17T13:37:28.737Z,81.68
2023-05-17T13:40:00.369Z,81.75
2023-05-17T13:42:33.088Z,81.76
2023-05-17T13:45:05.028Z,81.82
2023-05-17T13:47:36.849Z,81.81
2023-05-17T13:50:10.863Z,81.92
2023-05-17T13:52:43.913Z,81.99
2023-05-17T13:55:15.613Z,82.02
2023-05-17T13:57:47.276Z,82.01
2023-05-17T14:00:20.479Z,82.02
2023-05-17T14:02:52.239Z,82.12
2023-05-17T14:05:24.956Z,82.07
2023-05-17T14:07:56.725Z,81.93
2023-05-17T14:10:27.080Z,81.84
2023-05-17T14:12:58.873Z,81.82
2023-05-17T14:15:30.990Z,82.01
2023-05-17T14:18:02.828Z,82.05
2023-05-17T14:20:35.016Z,82.05
2023-05-17T14:23:06.991Z,82.22
2023-05-17T14:25:38.761Z,82.27
2023-05-17T14:28:10.591Z,82.56
2023-05-17T14:30:42.204Z,82.39
2023-05-17T14:33:14.194Z,82.44
2023-05-17T14:35:45.926Z,82.41
2023-05-17T14:38:17.977Z,82.29
2023-05-17T14:40:49.895Z,82.17
2023-05-17T14:43:23.503Z,82.09
2023-05-17T14:45:55.163Z,82.15
2023-05-17T14:48:26.930Z,82.21
2023-05-17T14:50:58.519Z,82.20
2023-05-17T14:53:29.385Z,82.06
2023-05-17T14:56:01.940Z,81.97
2023-05-17T14:58:33.500Z,82.00
2023-05-17T15:01:05.609Z,82.15
2023-05-17T15:03:38.527Z,82.07
2023-05-17T15:06:11.825Z,82.23
2023-05-17T15:08:43.779Z,82.37
2023-05-17T15:11:15.445Z,82.44
2023-05-17T15:13:47.640Z,82.44
2023-05-17T15:16:19.272Z,82.19
2023-05-17T15:18:52.289Z,82.01
2023-05-17T15:21:24.512Z,82.04
2023-05-17T15:23:56.167Z,82.05
2023-05-17T15:26:27.712Z,82.17
2023-05-17T15:28:59.572Z,82.14
2023-05-17T15:31:31.294Z,82.17
2023-05-17T15:34:03.085Z,82.29
2023-05-17T15:36:34.866Z,82.25
2023-05-17T15:39:06.678Z,82.20
2023-05-17T15:41:37.407Z,82.40
2023-05-17T15:44:09.444Z,82.04
2023-05-17T15:46:41.167Z,82.10
2023-05-17T15:49:13.013Z,82.12
2023-05-17T15:51:44.625Z,82.16
2023-05-17T15:54:15.641Z,82.26
2023-05-17T15:56:47.155Z,81.93
2023-05-17T15:59:19.141Z,81.93
2023-05-17T16:01:51.171Z,82.04
2023-05-17T16:04:22.865Z,82.16
2023-05-17T16:06:54.469Z,82.27
2023-05-17T16:09:24.623Z,82.20
2023-05-17T16:11:58.650Z,82.02
2023-05-17T16:14:30.348Z,82.25
2023-05-17T16:17:05.450Z,82.48
2023-05-17T16:19:37.233Z,82.45
2023-05-17T16:22:09.562Z,82.19
2023-05-17T16:24:41.898Z,82.01
2023-05-17T16:27:13.551Z,81.89
2023-05-17T16:29:45.238Z,82.02
2023-05-17T16:32:16.928Z,82.20
2023-05-17T16:34:48.560Z,82.20
2023-05-17T16:37:20.258Z,82.08
2023-05-17T16:39:51.793Z,81.97
2023-05-17T16:42:21.931Z,81.94
2023-05-17T16:44:53.796Z,81.90
2023-05-17T16:47:27.650Z,82.08
2023-05-17T16:50:01.318Z,82.08
2023-05-17T16:52:33.155Z,82.07
2023-05-17T16:55:04.923Z,82.21
2023-05-17T16:57:36.796Z,82.22
2023-05-17T17:00:12.065Z,82.21
2023-05-17T17:02:43.931Z,82.29
2023-05-17T17:05:15.666Z,82.24
2023-05-17T17:07:47.375Z,82.33
2023-05-17T17:10:22.739Z,82.34
2023-05-17T17:12:54.333Z,82.45
2023-05-17T17:15:26.349Z,82.48
2023-05-17T17:17:58.206Z,82.51
2023-05-17T17:20:30.141Z,82.40
2023-05-17T17:23:02.095Z,82.42
2023-05-17T17:25:34.010Z,82.45
2023-05-17T17:28:05.977Z,82.33
2023-05-17T17:30:37.676Z,82.46
2023-05-17T17:33:10.326Z,82.40
2023-05-17T17:35:42.320Z,82.44
2023-05-17T17:38:15.292Z,82.32
2023-05-17T17:40:47.781Z,82.28
2023-05-17T17:43:21.657Z,82.27
2023-05-17T17:45:53.772Z,82.16
2023-05-17T17:48:26.575Z,82.24
2023-05-17T17:50:59.106Z,82.30
2023-05-17T17:53:30.847Z,82.31
2023-05-17T17:56:03.055Z,82.36
2023-05-17T17:58:35.028Z,82.41
2023-05-17T18:01:07.372Z,82.48
2023-05-17T18:03:39.243Z,82.44
2023-05-17T18:06:11.854Z,82.48
2023-05-17T18:08:43.451Z,82.53
2023-05-17T18:11:14.382Z,82.53
2023-05-17T18:13:46.567Z,82.30
2023-05-17T18:16:18.457Z,82.54
2023-05-17T18:18:50.200Z,82.66
2023-05-17T18:21:21.986Z,82.63
2023-05-17T18:23:53.926Z,82.87
2023-05-17T18:26:25.893Z,82.80
2023-05-17T18:28:57.494Z,82.87
2023-05-17T18:31:29.161Z,82.83
2023-05-17T18:34:00.738Z,82.86
2023-05-17T18:36:31.027Z,82.72
2023-05-17T18:39:02.614Z,82.42
2023-05-17T18:41:32.791Z,82.50
2023-05-17T18:44:04.362Z,82.34
2023-05-17T18:46:35.026Z,82.50
2023-05-17T18:49:06.796Z,82.25
2023-05-17T18:51:38.396Z,82.37
2023-05-17T18:54:09.331Z,82.44
2023-05-17T18:56:41.118Z,82.23
2023-05-17T18:59:13.315Z,82.46
2023-05-17T19:01:48.062Z,82.44
2023-05-17T19:04:22.819Z,82.53
2023-05-17T19:06:58.119Z,82.46
2023-05-17T19:09:30.286Z,82.43
2023-05-17T19:12:02.326Z,82.40
2023-05-17T19:14:34.654Z,82.33
2023-05-17T19:17:09.341Z,82.32
2023-05-17T19:19:41.927Z,82.33
2023-05-17T19:22:14.457Z,82.31
2023-05-17T19:24:46.065Z,82.38
2023-05-17T19:27:19.480Z,82.37
2023-05-17T19:29:51.662Z,82.21
2023-05-17T19:32:23.729Z,82.25
2023-05-17T19:34:55.940Z,82.39
2023-05-17T19:37:28.348Z,82.47
2023-05-17T19:40:01.030Z,82.60
2023-05-17T19:42:32.689Z,82.66
2023-05-17T19:45:04.966Z,82.74
2023-05-17T19:47:36.808Z,82.74
2023-05-17T19:50:11.355Z,82.79
2023-05-17T19:52:43.261Z,82.76
2023-05-17T19:55:15.968Z,82.68
2023-05-17T19:57:49.276Z,82.69
2023-05-17T20:00:21.692Z,82.67
2023-05-17T20:02:53.442Z,82.79
2023-05-17T20:05:27.154Z,82.77
2023-05-17T20:07:59.180Z,82.75
2023-05-17T20:10:32.209Z,82.68
2023-05-17T20:13:04.360Z,82.67
2023-05-17T20:15:36.069Z,82.78
2023-05-17T20:18:09.419Z,82.72
2023-05-17T20:20:41.088Z,82.77
2023-05-17T20:23:13.519Z,82.82
2023-05-17T20:25:45.135Z,82.72
2023-05-17T20:28:15.299Z,82.68
2023-05-17T20:30:48.205Z,82.55
2023-05-17T20:33:26.212Z,82.56
2023-05-17T20:35:59.062Z,82.50
2023-05-17T20:38:30.773Z,82.53
2023-05-17T20:41:03.187Z,82.59
2023-05-17T20:43:35.026Z,82.62
2023-05-17T20:46:09.490Z,82.55
2023-05-17T20:48:42.948Z,82.45
2023-05-17T20:51:15.589Z,82.47
2023-05-17T20:53:47.308Z,82.50
2023-05-17T20:56:19.405Z,82.58
2023-05-17T20:58:51.350Z,82.57
2023-05-17T21:01:22.990Z,82.49
2023-05-17T21:03:57.138Z,82.50
2023-05-17T21:06:32.253Z,82.32
2023-05-17T21:09:04.447Z,82.32
2023-05-17T21:11:36.170Z,82.32
2023-05-17T21:14:10.555Z,82.36
2023-05-17T21:16:42.363Z,82.50
2023-05-17T21:19:14.576Z,82.52
2023-05-17T21:21:46.189Z,82.52
2023-05-17T21:24:16.332Z,82.65
2023-05-17T21:26:47.907Z,82.59
2023-05-17T21:29:18.149Z,82.34
2023-05-17T21:31:49.989Z,82.41
2023-05-17T21:34:21.725Z,82.50
2023-05-17T21:36:54.822Z,82.40
2023-05-17T21:39:26.520Z,82.36
2023-05-17T21:41:58.230Z,82.36
2023-05-17T21:44:28.484Z,82.25
2023-05-17T21:47:00.502Z,82.33
2023-05-17T21:49:32.115Z,82.17
2023-05-17T21:52:02.191Z,82.09
2023-05-17T21:54:33.689Z,82.10
2023-05-17T21:57:03.922Z,81.95
2023-05-17T21:59:35.704Z,82.04
2023-05-17T22:02:08.686Z,81.99
2023-05-17T22:04:41.121Z,81.96
2023-05-17T22:07:14.011Z,82.03
2023-05-17T22:09:46.644Z,81.97
2023-05-17T22:12:25.179Z,81.81
2023-05-17T22:14:58.089Z,81.84
2023-05-17T22:17:42.609Z,81.82
2023-05-17T22:20:23.564Z,81.93
2023-05-17T22:22:55.615Z,81.71
2023-05-17T22:25:27.204Z,81.78
2023-05-17T22:27:57.353Z,81.72
2023-05-17T22:30:29.375Z,81.67
2023-05-17T22:33:01.397Z,81.76
2023-05-17T22:35:33.244Z,81.80
2023-05-17T22:38:05.156Z,81.73
2023-05-17T22:40:36.994Z,81.76
2023-05-17T22:43:10.697Z,81.79
2023-05-17T22:45:42.615Z,81.75
2023-05-17T22:48:14.695Z,81.76
2023-05-17T22:50:46.809Z,81.49
2023-05-17T22:53:19.184Z,81.51
2023-05-17T22:55:50.776Z,81.37
2023-05-17T22:58:21.027Z,81.38
2023-05-17T23:00:53.037Z,81.32
2023-05-17T23:03:25.209Z,81.44
2023-05-17T23:06:02.994Z,81.44
2023-05-17T23:08:34.809Z,81.38
2023-05-17T23:11:06.417Z,81.52
2023-05-17T23:13:37.374Z,81.34
2023-05-17T23:16:13.826Z,81.24
2023-05-17T23:18:46.329Z,81.14
2023-05-17T23:21:18.420Z,81.11
2023-05-17T23:23:53.369Z,81.09
2023-05-17T23:26:24.933Z,81.02
2023-05-17T23:28:55.313Z,80.89
2023-05-17T23:31:29.930Z,80.91
2023-05-17T23:34:01.621Z,80.96
2023-05-17T23:36:31.799Z,80.91
2023-05-17T23:39:03.348Z,80.80
2023-05-17T23:41:33.636Z,80.83
2023-05-17T23:44:05.405Z,80.76
2023-05-17T23:46:37.241Z,80.78
2023-05-17T23:49:09.254Z,80.72
2023-05-17T23:51:40.885Z,80.77
2023-05-17T23:54:12.173Z,80.87
2023-05-17T23:56:43.723Z,80.76
2023-05-17T23:59:13.776Z,80.67
